sensor_id;sensor_type;location;lat;lon;timestamp;temperature;humidity
46706;DHT22;33519;50.712;7.124;2023-05-28T00:00:26;12.80;99.90
46706;DHT22;33519;50.712;7.124;2023-05-28T00:02:53;12.80;99.90
46706;DHT22;33519;50.712;7.124;2023-05-28T00:05:20;12.80;99.90
46706;DHT22;33519;50.712;7.124;2023-05-28T00:07:47;12.60;99.90
46706;DHT22;33519;50.712;7.124;2023-05-28T00:10:13;12.60;99.90
46706;DHT22;33519;50.712;7.124;2023-05-28T00:12:40;12.60;99.90
46706;DHT22;33519;50.712;7.124;2023-05-28T00:15:07;12.50;99.90
46706;DHT22;33519;50.712;7.124;2023-05-28T00:17:34;12.40;99.90
46706;DHT22;33519;50.712;7.124;2023-05-28T00:20:01;12.30;99.90
46706;DHT22;33519;50.712;7.124;2023-05-28T00:22:28;12.20;99.90
46706;DHT22;33519;50.712;7.124;2023-05-28T00:24:54;12.20;99.90
46706;DHT22;33519;50.712;7.124;2023-05-28T00:27:23;12.30;99.90
46706;DHT22;33519;50.712;7.124;2023-05-28T00:29:50;12.30;99.90
46706;DHT22;33519;50.712;7.124;2023-05-28T00:32:17;12.30;99.90
46706;DHT22;33519;50.712;7.124;2023-05-28T00:34:44;12.40;99.90
46706;DHT22;33519;50.712;7.124;2023-05-28T00:37:11;12.30;99.90
46706;DHT22;33519;50.712;7.124;2023-05-28T00:39:37;12.20;99.90
46706;DHT22;33519;50.712;7.124;2023-05-28T00:42:04;12.20;99.90
46706;DHT22;33519;50.712;7.124;2023-05-28T00:44:35;12.20;99.90
46706;DHT22;33519;50.712;7.124;2023-05-28T00:47:02;12.20;99.90
46706;DHT22;33519;50.712;7.124;2023-05-28T00:49:29;12.20;99.90
46706;DHT22;33519;50.712;7.124;2023-05-28T00:51:56;12.20;99.90
46706;DHT22;33519;50.712;7.124;2023-05-28T00:54:23;12.10;99.90
46706;DHT22;33519;50.712;7.124;2023-05-28T00:56:51;12.10;99.90
46706;DHT22;33519;50.712;7.124;2023-05-28T00:59:19;12.10;99.90
46706;DHT22;33519;50.712;7.124;2023-05-28T01:01:46;12.00;99.90
46706;DHT22;33519;50.712;7.124;2023-05-28T01:04:13;11.90;99.90
46706;DHT22;33519;50.712;7.124;2023-05-28T01:06:40;11.90;99.90
46706;DHT22;33519;50.712;7.124;2023-05-28T01:09:08;11.80;99.90
46706;DHT22;33519;50.712;7.124;2023-05-28T01:11:35;11.70;99.90
46706;DHT22;33519;50.712;7.124;2023-05-28T01:14:03;11.70;99.90
46706;DHT22;33519;50.712;7.124;2023-05-28T01:16:30;11.70;99.90
46706;DHT22;33519;50.712;7.124;2023-05-28T01:18:57;11.70;99.90
46706;DHT22;33519;50.712;7.124;2023-05-28T01:21:24;11.60;99.90
46706;DHT22;33519;50.712;7.124;2023-05-28T01:23:54;11.50;99.90
46706;DHT22;33519;50.712;7.124;2023-05-28T01:26:23;11.40;99.90
46706;DHT22;33519;50.712;7.124;2023-05-28T01:28:53;11.30;99.90
46706;DHT22;33519;50.712;7.124;2023-05-28T01:31:20;11.30;99.90
46706;DHT22;33519;50.712;7.124;2023-05-28T01:33:47;11.30;99.90
46706;DHT22;33519;50.712;7.124;2023-05-28T01:36:16;11.20;99.90
46706;DHT22;33519;50.712;7.124;2023-05-28T01:38:45;11.20;99.90
46706;DHT22;33519;50.712;7.124;2023-05-28T01:41:13;11.10;99.90
46706;DHT22;33519;50.712;7.124;2023-05-28T01:43:40;11.20;99.90
46706;DHT22;33519;50.712;7.124;2023-05-28T01:46:08;11.10;99.90
46706;DHT22;33519;50.712;7.124;2023-05-28T01:48:35;11.10;99.90
46706;DHT22;33519;50.712;7.124;2023-05-28T01:51:06;11.00;99.90
46706;DHT22;33519;50.712;7.124;2023-05-28T01:53:33;10.90;99.90
46706;DHT22;33519;50.712;7.124;2023-05-28T01:56:00;10.90;99.90
46706;DHT22;33519;50.712;7.124;2023-05-28T01:58:28;10.80;99.90
46706;DHT22;33519;50.712;7.124;2023-05-28T02:00:59;10.80;99.90
46706;DHT22;33519;50.712;7.124;2023-05-28T02:03:29;10.70;99.90
46706;DHT22;33519;50.712;7.124;2023-05-28T02:05:56;10.70;99.90
46706;DHT22;33519;50.712;7.124;2023-05-28T02:08:22;10.70;99.90
46706;DHT22;33519;50.712;7.124;2023-05-28T02:10:49;10.60;99.90
46706;DHT22;33519;50.712;7.124;2023-05-28T02:13:16;10.60;99.90
46706;DHT22;33519;50.712;7.124;2023-05-28T02:15:43;10.50;99.90
46706;DHT22;33519;50.712;7.124;2023-05-28T02:18:10;10.50;99.90
46706;DHT22;33519;50.712;7.124;2023-05-28T02:20:37;10.50;99.90
46706;DHT22;33519;50.712;7.124;2023-05-28T02:23:04;10.40;99.90
46706;DHT22;33519;50.712;7.124;2023-05-28T02:25:31;10.40;99.90
46706;DHT22;33519;50.712;7.124;2023-05-28T02:27:57;10.30;99.90
46706;DHT22;33519;50.712;7.124;2023-05-28T02:30:24;10.30;99.90
46706;DHT22;33519;50.712;7.124;2023-05-28T02:32:51;10.20;99.90
46706;DHT22;33519;50.712;7.124;2023-05-28T02:35:18;10.20;99.90
46706;DHT22;33519;50.712;7.124;2023-05-28T02:37:46;10.20;99.90
46706;DHT22;33519;50.712;7.124;2023-05-28T02:40:13;10.20;99.90
46706;DHT22;33519;50.712;7.124;2023-05-28T02:42:39;10.10;99.90
46706;DHT22;33519;50.712;7.124;2023-05-28T02:45:06;10.00;99.90
46706;DHT22;33519;50.712;7.124;2023-05-28T02:47:33;10.00;99.90
46706;DHT22;33519;50.712;7.124;2023-05-28T02:50:00;10.10;99.90
46706;DHT22;33519;50.712;7.124;2023-05-28T02:52:27;10.00;99.90
46706;DHT22;33519;50.712;7.124;2023-05-28T02:54:53;10.00;99.90
46706;DHT22;33519;50.712;7.124;2023-05-28T02:57:20;9.90;99.90
46706;DHT22;33519;50.712;7.124;2023-05-28T02:59:48;9.80;99.90
46706;DHT22;33519;50.712;7.124;2023-05-28T03:02:15;9.70;99.90
46706;DHT22;33519;50.712;7.124;2023-05-28T03:04:41;9.70;99.90
46706;DHT22;33519;50.712;7.124;2023-05-28T03:07:08;9.70;99.90
46706;DHT22;33519;50.712;7.124;2023-05-28T03:12:05;9.60;99.90
46706;DHT22;33519;50.712;7.124;2023-05-28T03:14:32;9.60;99.90
46706;DHT22;33519;50.712;7.124;2023-05-28T03:16:59;9.50;99.90
46706;DHT22;33519;50.712;7.124;2023-05-28T03:19:25;9.50;99.90
46706;DHT22;33519;50.712;7.124;2023-05-28T03:21:52;9.50;99.90
46706;DHT22;33519;50.712;7.124;2023-05-28T03:24:19;9.40;99.90
46706;DHT22;33519;50.712;7.124;2023-05-28T03:26:45;9.40;99.90
46706;DHT22;33519;50.712;7.124;2023-05-28T03:29:12;9.40;99.90
46706;DHT22;33519;50.712;7.124;2023-05-28T03:31:43;9.40;99.90
46706;DHT22;33519;50.712;7.124;2023-05-28T03:34:11;9.40;99.90
46706;DHT22;33519;50.712;7.124;2023-05-28T03:36:38;9.40;99.90
46706;DHT22;33519;50.712;7.124;2023-05-28T03:39:08;9.40;99.90
46706;DHT22;33519;50.712;7.124;2023-05-28T03:41:35;9.40;99.90
46706;DHT22;33519;50.712;7.124;2023-05-28T03:44:01;9.30;99.90
46706;DHT22;33519;50.712;7.124;2023-05-28T03:46:28;9.30;99.90
46706;DHT22;33519;50.712;7.124;2023-05-28T03:48:55;9.30;99.90
46706;DHT22;33519;50.712;7.124;2023-05-28T03:51:21;9.30;99.90
46706;DHT22;33519;50.712;7.124;2023-05-28T03:53:51;9.30;99.90
46706;DHT22;33519;50.712;7.124;2023-05-28T03:56:18;9.20;99.90
46706;DHT22;33519;50.712;7.124;2023-05-28T03:58:45;9.30;99.90
46706;DHT22;33519;50.712;7.124;2023-05-28T04:01:12;9.30;99.90
46706;DHT22;33519;50.712;7.124;2023-05-28T04:03:39;9.40;99.90
46706;DHT22;33519;50.712;7.124;2023-05-28T04:06:06;9.40;99.90
46706;DHT22;33519;50.712;7.124;2023-05-28T04:08:33;9.40;99.90
46706;DHT22;33519;50.712;7.124;2023-05-28T04:11:00;9.40;99.90
46706;DHT22;33519;50.712;7.124;2023-05-28T04:13:27;9.30;99.90
46706;DHT22;33519;50.712;7.124;2023-05-28T04:15:53;9.40;99.90
46706;DHT22;33519;50.712;7.124;2023-05-28T04:18:20;9.40;99.90
46706;DHT22;33519;50.712;7.124;2023-05-28T04:20:47;9.50;99.90
46706;DHT22;33519;50.712;7.124;2023-05-28T04:23:13;9.50;99.90
46706;DHT22;33519;50.712;7.124;2023-05-28T04:25:41;9.50;99.90
46706;DHT22;33519;50.712;7.124;2023-05-28T04:28:07;9.50;99.90
46706;DHT22;33519;50.712;7.124;2023-05-28T04:30:34;9.50;99.90
46706;DHT22;33519;50.712;7.124;2023-05-28T04:33:00;9.50;99.90
46706;DHT22;33519;50.712;7.124;2023-05-28T04:35:27;9.60;99.90
46706;DHT22;33519;50.712;7.124;2023-05-28T04:37:55;9.60;99.90
46706;DHT22;33519;50.712;7.124;2023-05-28T04:40:22;9.60;99.90
46706;DHT22;33519;50.712;7.124;2023-05-28T04:42:48;9.70;99.90
46706;DHT22;33519;50.712;7.124;2023-05-28T04:45:15;9.70;99.90
46706;DHT22;33519;50.712;7.124;2023-05-28T04:47:42;9.80;99.90
46706;DHT22;33519;50.712;7.124;2023-05-28T04:50:09;9.80;99.90
46706;DHT22;33519;50.712;7.124;2023-05-28T04:52:36;9.90;99.90
46706;DHT22;33519;50.712;7.124;2023-05-28T04:55:04;9.90;99.90
46706;DHT22;33519;50.712;7.124;2023-05-28T04:57:31;10.00;99.90
46706;DHT22;33519;50.712;7.124;2023-05-28T04:59:58;10.10;99.90
46706;DHT22;33519;50.712;7.124;2023-05-28T05:02:25;10.30;99.90
46706;DHT22;33519;50.712;7.124;2023-05-28T05:04:52;10.30;99.90
46706;DHT22;33519;50.712;7.124;2023-05-28T05:07:19;10.30;99.90
46706;DHT22;33519;50.712;7.124;2023-05-28T05:09:47;10.40;99.90
46706;DHT22;33519;50.712;7.124;2023-05-28T05:12:13;10.50;99.90
46706;DHT22;33519;50.712;7.124;2023-05-28T05:14:40;10.60;99.90
46706;DHT22;33519;50.712;7.124;2023-05-28T05:17:07;10.60;99.90
46706;DHT22;33519;50.712;7.124;2023-05-28T05:19:35;10.70;99.90
46706;DHT22;33519;50.712;7.124;2023-05-28T05:22:02;10.80;99.90
46706;DHT22;33519;50.712;7.124;2023-05-28T05:24:31;10.90;99.90
46706;DHT22;33519;50.712;7.124;2023-05-28T05:26:58;11.00;99.90
46706;DHT22;33519;50.712;7.124;2023-05-28T05:29:24;11.00;99.90
46706;DHT22;33519;50.712;7.124;2023-05-28T05:31:51;11.10;99.90
46706;DHT22;33519;50.712;7.124;2023-05-28T05:34:19;11.20;99.90
46706;DHT22;33519;50.712;7.124;2023-05-28T05:36:46;11.30;99.90
46706;DHT22;33519;50.712;7.124;2023-05-28T05:39:13;11.40;99.90
46706;DHT22;33519;50.712;7.124;2023-05-28T05:41:41;11.40;99.90
46706;DHT22;33519;50.712;7.124;2023-05-28T05:44:07;11.50;99.90
46706;DHT22;33519;50.712;7.124;2023-05-28T05:46:34;11.60;99.90
46706;DHT22;33519;50.712;7.124;2023-05-28T05:49:01;11.70;99.90
46706;DHT22;33519;50.712;7.124;2023-05-28T05:51:27;11.80;99.90
46706;DHT22;33519;50.712;7.124;2023-05-28T05:53:54;11.90;99.90
46706;DHT22;33519;50.712;7.124;2023-05-28T05:56:20;12.00;99.90
46706;DHT22;33519;50.712;7.124;2023-05-28T05:58:47;12.10;99.90
46706;DHT22;33519;50.712;7.124;2023-05-28T06:01:17;12.20;99.90
46706;DHT22;33519;50.712;7.124;2023-05-28T06:03:44;12.30;99.90
46706;DHT22;33519;50.712;7.124;2023-05-28T06:06:10;12.40;99.90
46706;DHT22;33519;50.712;7.124;2023-05-28T06:08:37;12.50;99.90
46706;DHT22;33519;50.712;7.124;2023-05-28T06:11:03;12.60;99.90
46706;DHT22;33519;50.712;7.124;2023-05-28T06:13:30;12.70;99.90
46706;DHT22;33519;50.712;7.124;2023-05-28T06:15:57;12.80;99.90
46706;DHT22;33519;50.712;7.124;2023-05-28T06:18:26;12.80;99.90
46706;DHT22;33519;50.712;7.124;2023-05-28T06:20:52;12.90;99.90
46706;DHT22;33519;50.712;7.124;2023-05-28T06:23:19;13.00;99.90
46706;DHT22;33519;50.712;7.124;2023-05-28T06:25:46;13.20;99.90
46706;DHT22;33519;50.712;7.124;2023-05-28T06:28:12;13.30;99.90
46706;DHT22;33519;50.712;7.124;2023-05-28T06:30:39;13.30;99.90
46706;DHT22;33519;50.712;7.124;2023-05-28T06:33:06;13.30;99.90
46706;DHT22;33519;50.712;7.124;2023-05-28T06:35:34;13.40;99.90
46706;DHT22;33519;50.712;7.124;2023-05-28T06:38:01;13.60;99.90
46706;DHT22;33519;50.712;7.124;2023-05-28T06:40:27;13.70;99.90
46706;DHT22;33519;50.712;7.124;2023-05-28T06:42:54;13.80;99.90
46706;DHT22;33519;50.712;7.124;2023-05-28T06:45:21;13.90;99.90
46706;DHT22;33519;50.712;7.124;2023-05-28T06:47:48;14.00;99.90
46706;DHT22;33519;50.712;7.124;2023-05-28T06:50:14;14.10;99.90
46706;DHT22;33519;50.712;7.124;2023-05-28T06:52:41;14.20;99.90
46706;DHT22;33519;50.712;7.124;2023-05-28T06:55:08;14.30;99.90
46706;DHT22;33519;50.712;7.124;2023-05-28T06:57:35;14.40;99.90
46706;DHT22;33519;50.712;7.124;2023-05-28T07:00:05;14.50;99.90
46706;DHT22;33519;50.712;7.124;2023-05-28T07:02:46;14.60;99.90
46706;DHT22;33519;50.712;7.124;2023-05-28T07:05:12;14.80;99.90
46706;DHT22;33519;50.712;7.124;2023-05-28T07:07:39;14.90;99.90
46706;DHT22;33519;50.712;7.124;2023-05-28T07:10:06;15.10;99.90
46706;DHT22;33519;50.712;7.124;2023-05-28T07:12:33;15.20;99.90
46706;DHT22;33519;50.712;7.124;2023-05-28T07:15:00;15.30;99.90
46706;DHT22;33519;50.712;7.124;2023-05-28T07:17:26;15.40;99.90
46706;DHT22;33519;50.712;7.124;2023-05-28T07:19:53;15.60;99.90
46706;DHT22;33519;50.712;7.124;2023-05-28T07:22:20;15.80;99.90
46706;DHT22;33519;50.712;7.124;2023-05-28T07:24:46;15.80;99.90
46706;DHT22;33519;50.712;7.124;2023-05-28T07:27:14;15.90;99.90
46706;DHT22;33519;50.712;7.124;2023-05-28T07:29:41;16.00;99.90
46706;DHT22;33519;50.712;7.124;2023-05-28T07:32:07;16.10;99.90
46706;DHT22;33519;50.712;7.124;2023-05-28T07:34:34;16.10;99.90
46706;DHT22;33519;50.712;7.124;2023-05-28T07:37:01;16.20;99.90
46706;DHT22;33519;50.712;7.124;2023-05-28T07:39:27;16.20;99.90
46706;DHT22;33519;50.712;7.124;2023-05-28T07:41:54;16.30;99.90
46706;DHT22;33519;50.712;7.124;2023-05-28T07:44:21;16.50;99.90
46706;DHT22;33519;50.712;7.124;2023-05-28T07:46:47;16.80;99.90
46706;DHT22;33519;50.712;7.124;2023-05-28T07:49:14;17.10;99.90
46706;DHT22;33519;50.712;7.124;2023-05-28T07:51:42;17.20;99.90
46706;DHT22;33519;50.712;7.124;2023-05-28T07:54:10;17.30;99.90
46706;DHT22;33519;50.712;7.124;2023-05-28T07:56:37;17.30;99.90
46706;DHT22;33519;50.712;7.124;2023-05-28T07:59:06;17.40;99.90
46706;DHT22;33519;50.712;7.124;2023-05-28T08:01:33;17.40;99.90
46706;DHT22;33519;50.712;7.124;2023-05-28T08:04:00;17.60;99.90
46706;DHT22;33519;50.712;7.124;2023-05-28T08:06:27;17.80;99.90
46706;DHT22;33519;50.712;7.124;2023-05-28T08:08:54;18.00;99.90
46706;DHT22;33519;50.712;7.124;2023-05-28T08:11:21;17.90;99.90
46706;DHT22;33519;50.712;7.124;2023-05-28T08:13:48;18.00;99.90
46706;DHT22;33519;50.712;7.124;2023-05-28T08:16:14;17.90;99.90
46706;DHT22;33519;50.712;7.124;2023-05-28T08:18:41;18.20;99.60
46706;DHT22;33519;50.712;7.124;2023-05-28T08:21:08;18.40;99.50
46706;DHT22;33519;50.712;7.124;2023-05-28T08:23:35;18.40;99.30
46706;DHT22;33519;50.712;7.124;2023-05-28T08:26:01;18.40;99.20
46706;DHT22;33519;50.712;7.124;2023-05-28T08:28:28;18.70;99.10
46706;DHT22;33519;50.712;7.124;2023-05-28T08:30:55;18.70;99.80
46706;DHT22;33519;50.712;7.124;2023-05-28T08:33:22;19.00;98.80
46706;DHT22;33519;50.712;7.124;2023-05-28T08:35:49;19.00;99.10
46706;DHT22;33519;50.712;7.124;2023-05-28T08:38:16;19.20;98.20
46706;DHT22;33519;50.712;7.124;2023-05-28T08:43:16;19.40;94.80
46706;DHT22;33519;50.712;7.124;2023-05-28T08:45:43;19.70;94.30
46706;DHT22;33519;50.712;7.124;2023-05-28T08:48:09;19.90;92.90
46706;DHT22;33519;50.712;7.124;2023-05-28T08:50:38;20.00;91.50
46706;DHT22;33519;50.712;7.124;2023-05-28T08:53:10;19.90;91.60
46706;DHT22;33519;50.712;7.124;2023-05-28T08:55:39;20.40;91.00
46706;DHT22;33519;50.712;7.124;2023-05-28T08:58:06;20.40;91.00
46706;DHT22;33519;50.712;7.124;2023-05-28T09:00:33;20.70;90.70
46706;DHT22;33519;50.712;7.124;2023-05-28T09:03:00;21.00;90.10
46706;DHT22;33519;50.712;7.124;2023-05-28T09:05:27;21.20;90.20
46706;DHT22;33519;50.712;7.124;2023-05-28T09:07:54;21.20;90.20
46706;DHT22;33519;50.712;7.124;2023-05-28T09:10:21;21.60;88.70
46706;DHT22;33519;50.712;7.124;2023-05-28T09:12:57;21.30;89.60
46706;DHT22;33519;50.712;7.124;2023-05-28T09:15:24;21.10;90.30
46706;DHT22;33519;50.712;7.124;2023-05-28T09:17:51;20.60;90.80
46706;DHT22;33519;50.712;7.124;2023-05-28T09:20:18;21.10;90.70
46706;DHT22;33519;50.712;7.124;2023-05-28T09:22:51;21.20;89.70
46706;DHT22;33519;50.712;7.124;2023-05-28T09:25:23;21.50;88.80
46706;DHT22;33519;50.712;7.124;2023-05-28T09:27:50;21.80;87.70
46706;DHT22;33519;50.712;7.124;2023-05-28T09:30:19;22.50;86.10
46706;DHT22;33519;50.712;7.124;2023-05-28T09:32:47;23.70;81.70
46706;DHT22;33519;50.712;7.124;2023-05-28T09:35:23;24.00;78.40
46706;DHT22;33519;50.712;7.124;2023-05-28T09:37:58;25.60;75.10
46706;DHT22;33519;50.712;7.124;2023-05-28T09:40:25;25.60;73.00
46706;DHT22;33519;50.712;7.124;2023-05-28T09:42:52;26.70;71.00
46706;DHT22;33519;50.712;7.124;2023-05-28T09:45:24;27.40;68.50
46706;DHT22;33519;50.712;7.124;2023-05-28T09:47:51;27.90;66.20
46706;DHT22;33519;50.712;7.124;2023-05-28T09:50:18;26.10;66.80
46706;DHT22;33519;50.712;7.124;2023-05-28T09:52:45;27.30;65.30
46706;DHT22;33519;50.712;7.124;2023-05-28T09:55:13;28.70;63.40
46706;DHT22;33519;50.712;7.124;2023-05-28T09:57:44;28.40;62.60
46706;DHT22;33519;50.712;7.124;2023-05-28T10:00:11;28.20;63.10
46706;DHT22;33519;50.712;7.124;2023-05-28T10:03:00;26.70;64.70
46706;DHT22;33519;50.712;7.124;2023-05-28T10:05:33;27.40;63.80
46706;DHT22;33519;50.712;7.124;2023-05-28T10:08:00;26.70;63.10
46706;DHT22;33519;50.712;7.124;2023-05-28T10:10:28;27.40;63.50
46706;DHT22;33519;50.712;7.124;2023-05-28T10:12:56;28.40;61.60
46706;DHT22;33519;50.712;7.124;2023-05-28T10:15:37;27.60;60.20
46706;DHT22;33519;50.712;7.124;2023-05-28T10:18:05;27.10;62.20
46706;DHT22;33519;50.712;7.124;2023-05-28T10:20:32;28.80;60.90
46706;DHT22;33519;50.712;7.124;2023-05-28T10:22:59;29.30;58.90
46706;DHT22;33519;50.712;7.124;2023-05-28T10:25:26;30.10;58.20
46706;DHT22;33519;50.712;7.124;2023-05-28T10:27:56;30.10;58.20
46706;DHT22;33519;50.712;7.124;2023-05-28T10:30:34;30.50;57.20
46706;DHT22;33519;50.712;7.124;2023-05-28T10:33:05;30.50;56.10
46706;DHT22;33519;50.712;7.124;2023-05-28T10:35:32;32.20;55.00
46706;DHT22;33519;50.712;7.124;2023-05-28T10:40:30;30.20;54.90
46706;DHT22;33519;50.712;7.124;2023-05-28T10:42:58;31.40;53.70
46706;DHT22;33519;50.712;7.124;2023-05-28T10:45:37;31.30;53.10
46706;DHT22;33519;50.712;7.124;2023-05-28T10:48:04;33.30;52.70
46706;DHT22;33519;50.712;7.124;2023-05-28T10:50:50;34.80;50.30
46706;DHT22;33519;50.712;7.124;2023-05-28T10:53:23;34.80;49.20
46706;DHT22;33519;50.712;7.124;2023-05-28T10:55:51;33.40;47.00
46706;DHT22;33519;50.712;7.124;2023-05-28T10:58:30;34.20;46.10
46706;DHT22;33519;50.712;7.124;2023-05-28T11:01:07;35.40;45.70
46706;DHT22;33519;50.712;7.124;2023-05-28T11:03:45;34.60;45.20
46706;DHT22;33519;50.712;7.124;2023-05-28T11:06:12;34.00;45.50
46706;DHT22;33519;50.712;7.124;2023-05-28T11:08:46;34.30;45.40
46706;DHT22;33519;50.712;7.124;2023-05-28T11:13:46;34.90;44.30
46706;DHT22;33519;50.712;7.124;2023-05-28T11:16:15;35.90;44.60
46706;DHT22;33519;50.712;7.124;2023-05-28T11:21:28;35.20;45.00
46706;DHT22;33519;50.712;7.124;2023-05-28T11:24:01;35.60;43.90
46706;DHT22;33519;50.712;7.124;2023-05-28T11:26:28;36.60;43.40
46706;DHT22;33519;50.712;7.124;2023-05-28T11:28:55;33.90;44.20
46706;DHT22;33519;50.712;7.124;2023-05-28T11:31:21;36.00;43.70
46706;DHT22;33519;50.712;7.124;2023-05-28T11:33:48;35.60;43.50
46706;DHT22;33519;50.712;7.124;2023-05-28T11:36:15;34.80;43.30
46706;DHT22;33519;50.712;7.124;2023-05-28T11:38:42;35.40;42.70
46706;DHT22;33519;50.712;7.124;2023-05-28T11:41:08;35.40;44.00
46706;DHT22;33519;50.712;7.124;2023-05-28T11:43:35;33.60;44.90
46706;DHT22;33519;50.712;7.124;2023-05-28T11:46:03;32.20;45.50
46706;DHT22;33519;50.712;7.124;2023-05-28T11:48:35;31.50;47.20
46706;DHT22;33519;50.712;7.124;2023-05-28T11:51:02;32.70;46.70
46706;DHT22;33519;50.712;7.124;2023-05-28T11:53:41;32.10;46.10
46706;DHT22;33519;50.712;7.124;2023-05-28T11:56:09;32.50;46.30
46706;DHT22;33519;50.712;7.124;2023-05-28T11:58:36;33.10;45.50
46706;DHT22;33519;50.712;7.124;2023-05-28T12:01:08;33.20;45.70
46706;DHT22;33519;50.712;7.124;2023-05-28T12:03:34;33.30;45.70
46706;DHT22;33519;50.712;7.124;2023-05-28T12:06:01;33.60;45.90
46706;DHT22;33519;50.712;7.124;2023-05-28T12:08:29;34.40;45.40
46706;DHT22;33519;50.712;7.124;2023-05-28T12:11:01;32.70;46.00
46706;DHT22;33519;50.712;7.124;2023-05-28T12:13:32;31.40;47.10
46706;DHT22;33519;50.712;7.124;2023-05-28T12:16:11;31.80;47.00
46706;DHT22;33519;50.712;7.124;2023-05-28T12:18:42;33.00;47.00
46706;DHT22;33519;50.712;7.124;2023-05-28T12:21:13;32.90;46.00
46706;DHT22;33519;50.712;7.124;2023-05-28T12:23:45;31.30;47.20
46706;DHT22;33519;50.712;7.124;2023-05-28T12:26:13;32.40;47.80
46706;DHT22;33519;50.712;7.124;2023-05-28T12:28:40;32.70;46.80
46706;DHT22;33519;50.712;7.124;2023-05-28T12:31:08;32.90;47.30
46706;DHT22;33519;50.712;7.124;2023-05-28T12:33:36;32.10;46.80
46706;DHT22;33519;50.712;7.124;2023-05-28T12:36:03;31.90;47.70
46706;DHT22;33519;50.712;7.124;2023-05-28T12:38:29;32.30;46.70
46706;DHT22;33519;50.712;7.124;2023-05-28T12:40:57;32.60;47.50
46706;DHT22;33519;50.712;7.124;2023-05-28T12:43:24;32.70;46.10
46706;DHT22;33519;50.712;7.124;2023-05-28T12:45:51;33.80;46.10
46706;DHT22;33519;50.712;7.124;2023-05-28T12:48:18;32.60;46.70
46706;DHT22;33519;50.712;7.124;2023-05-28T12:50:44;32.40;45.80
46706;DHT22;33519;50.712;7.124;2023-05-28T12:53:11;33.20;46.00
46706;DHT22;33519;50.712;7.124;2023-05-28T12:55:38;32.20;45.20
46706;DHT22;33519;50.712;7.124;2023-05-28T12:58:04;33.40;45.40
46706;DHT22;33519;50.712;7.124;2023-05-28T13:00:31;33.80;45.00
46706;DHT22;33519;50.712;7.124;2023-05-28T13:02:58;33.60;44.80
46706;DHT22;33519;50.712;7.124;2023-05-28T13:05:26;33.80;45.10
46706;DHT22;33519;50.712;7.124;2023-05-28T13:07:53;34.40;44.70
46706;DHT22;33519;50.712;7.124;2023-05-28T13:10:19;33.60;44.80
46706;DHT22;33519;50.712;7.124;2023-05-28T13:12:46;32.60;45.70
46706;DHT22;33519;50.712;7.124;2023-05-28T13:15:13;33.00;45.50
46706;DHT22;33519;50.712;7.124;2023-05-28T13:17:40;33.40;45.30
46706;DHT22;33519;50.712;7.124;2023-05-28T13:20:06;33.80;45.10
46706;DHT22;33519;50.712;7.124;2023-05-28T13:22:37;35.10;44.50
46706;DHT22;33519;50.712;7.124;2023-05-28T13:25:04;35.70;44.50
46706;DHT22;33519;50.712;7.124;2023-05-28T13:27:31;36.40;43.30
46706;DHT22;33519;50.712;7.124;2023-05-28T13:29:57;35.20;43.50
46706;DHT22;33519;50.712;7.124;2023-05-28T13:32:24;32.90;44.80
46706;DHT22;33519;50.712;7.124;2023-05-28T13:34:51;33.30;45.00
46706;DHT22;33519;50.712;7.124;2023-05-28T13:37:18;34.10;44.20
46706;DHT22;33519;50.712;7.124;2023-05-28T13:39:45;35.10;43.30
46706;DHT22;33519;50.712;7.124;2023-05-28T13:42:12;36.80;42.90
46706;DHT22;33519;50.712;7.124;2023-05-28T13:44:39;36.30;42.00
46706;DHT22;33519;50.712;7.124;2023-05-28T13:47:06;36.30;42.70
46706;DHT22;33519;50.712;7.124;2023-05-28T13:49:33;35.40;42.40
46706;DHT22;33519;50.712;7.124;2023-05-28T13:51:59;36.60;41.80
46706;DHT22;33519;50.712;7.124;2023-05-28T13:54:26;34.70;42.10
46706;DHT22;33519;50.712;7.124;2023-05-28T13:56:53;35.30;41.50
46706;DHT22;33519;50.712;7.124;2023-05-28T13:59:20;36.10;42.70
46706;DHT22;33519;50.712;7.124;2023-05-28T14:01:46;36.20;41.80
46706;DHT22;33519;50.712;7.124;2023-05-28T14:04:13;34.50;43.20
46706;DHT22;33519;50.712;7.124;2023-05-28T14:06:40;34.00;42.50
46706;DHT22;33519;50.712;7.124;2023-05-28T14:09:06;36.20;42.90
46706;DHT22;33519;50.712;7.124;2023-05-28T14:11:33;38.40;41.30
46706;DHT22;33519;50.712;7.124;2023-05-28T14:14:02;38.90;40.30
46706;DHT22;33519;50.712;7.124;2023-05-28T14:16:29;39.40;40.20
46706;DHT22;33519;50.712;7.124;2023-05-28T14:18:56;40.00;40.20
46706;DHT22;33519;50.712;7.124;2023-05-28T14:21:22;35.90;40.60
46706;DHT22;33519;50.712;7.124;2023-05-28T14:23:49;37.50;41.20
46706;DHT22;33519;50.712;7.124;2023-05-28T14:26:16;35.50;40.90
46706;DHT22;33519;50.712;7.124;2023-05-28T14:28:42;35.70;41.30
46706;DHT22;33519;50.712;7.124;2023-05-28T14:31:09;37.60;40.90
46706;DHT22;33519;50.712;7.124;2023-05-28T14:33:36;38.60;41.50
46706;DHT22;33519;50.712;7.124;2023-05-28T14:36:02;39.10;40.70
46706;DHT22;33519;50.712;7.124;2023-05-28T14:38:41;34.90;41.50
46706;DHT22;33519;50.712;7.124;2023-05-28T14:41:08;35.10;42.40
46706;DHT22;33519;50.712;7.124;2023-05-28T14:43:34;34.70;42.60
46706;DHT22;33519;50.712;7.124;2023-05-28T14:46:01;35.20;42.20
46706;DHT22;33519;50.712;7.124;2023-05-28T14:48:28;37.20;41.60
46706;DHT22;33519;50.712;7.124;2023-05-28T14:50:56;36.00;42.10
46706;DHT22;33519;50.712;7.124;2023-05-28T14:53:23;36.30;42.40
46706;DHT22;33519;50.712;7.124;2023-05-28T14:55:50;35.20;43.00
46706;DHT22;33519;50.712;7.124;2023-05-28T14:58:18;36.30;42.40
46706;DHT22;33519;50.712;7.124;2023-05-28T15:00:45;37.00;41.70
46706;DHT22;33519;50.712;7.124;2023-05-28T15:03:11;37.30;42.70
46706;DHT22;33519;50.712;7.124;2023-05-28T15:05:38;34.90;43.30
46706;DHT22;33519;50.712;7.124;2023-05-28T15:08:05;35.60;44.00
46706;DHT22;33519;50.712;7.124;2023-05-28T15:10:32;35.70;43.00
46706;DHT22;33519;50.712;7.124;2023-05-28T15:12:59;34.60;43.00
46706;DHT22;33519;50.712;7.124;2023-05-28T15:15:26;33.90;44.00
46706;DHT22;33519;50.712;7.124;2023-05-28T15:17:52;31.70;46.30
46706;DHT22;33519;50.712;7.124;2023-05-28T15:20:21;32.20;45.90
46706;DHT22;33519;50.712;7.124;2023-05-28T15:22:48;33.40;45.90
46706;DHT22;33519;50.712;7.124;2023-05-28T15:25:14;33.10;45.00
46706;DHT22;33519;50.712;7.124;2023-05-28T15:27:43;34.00;44.80
46706;DHT22;33519;50.712;7.124;2023-05-28T15:30:09;34.60;45.10
46706;DHT22;33519;50.712;7.124;2023-05-28T15:32:37;34.10;45.20
46706;DHT22;33519;50.712;7.124;2023-05-28T15:35:04;35.60;45.20
46706;DHT22;33519;50.712;7.124;2023-05-28T15:37:31;35.00;44.80
46706;DHT22;33519;50.712;7.124;2023-05-28T15:39:57;35.10;44.60
46706;DHT22;33519;50.712;7.124;2023-05-28T15:42:25;32.90;45.50
46706;DHT22;33519;50.712;7.124;2023-05-28T15:44:52;33.20;46.20
46706;DHT22;33519;50.712;7.124;2023-05-28T15:47:19;33.20;46.40